Time;durP1;ratioP1;P1;durP2;ratioP2;P2;SDS_P1;SDS_P2;PMS_P1;PMS_P2;Temp;Humidity;BMP_temperature;BMP_pressure;BME280_temperature;BME280_humidity;BME280_pressure;Samples;Min_cycle;Max_cycle;Signal;HPM_P1;HPM_P2
2023/03/30 00:00:52;;;;;;;4.22;2.50;;;19.00;84.70;;;;;;5046415;28;20108;-69
2023/03/30 00:03:18;;;;;;;5.38;2.38;;;18.90;84.70;;;;;;5044418;28;20033;-69
2023/03/30 00:05:45;;;;;;;3.58;2.75;;;19.00;84.80;;;;;;5046313;28;20107;-69
2023/03/30 00:08:13;;;;;;;4.95;2.58;;;19.00;84.80;;;;;;5046120;28;20128;-68
2023/03/30 00:10:39;;;;;;;3.38;2.50;;;18.90;84.80;;;;;;5045583;28;20519;-70
2023/03/30 00:13:06;;;;;;;3.72;2.45;;;18.90;84.80;;;;;;5046072;28;20045;-68
2023/03/30 00:15:33;;;;;;;4.95;2.72;;;18.90;84.90;;;;;;5046013;28;20056;-70
2023/03/30 00:17:58;;;;;;;3.20;2.40;;;18.90;85.00;;;;;;5046647;28;20044;-67
2023/03/30 00:20:24;;;;;;;3.35;2.20;;;18.90;85.00;;;;;;5045259;28;20048;-68
2023/03/30 00:22:50;;;;;;;4.10;2.50;;;18.90;85.00;;;;;;5046249;28;20040;-70
2023/03/30 00:25:16;;;;;;;4.28;2.40;;;18.90;85.00;;;;;;5044774;28;20040;-68
2023/03/30 00:27:42;;;;;;;3.00;2.20;;;18.90;85.10;;;;;;5045509;28;20080;-71
2023/03/30 00:30:14;;;;;;;3.20;2.50;;;18.90;85.10;;;;;;5045591;28;20522;-68
2023/03/30 00:32:40;;;;;;;4.88;2.40;;;18.90;85.20;;;;;;5046165;28;20120;-70
2023/03/30 00:35:06;;;;;;;3.95;2.30;;;18.90;85.20;;;;;;5043343;28;20056;-68
2023/03/30 00:37:36;;;;;;;3.25;2.20;;;18.90;85.20;;;;;;5046402;28;20037;-70
2023/03/30 00:40:04;;;;;;;3.47;2.13;;;18.90;85.30;;;;;;5046385;28;20088;-68
2023/03/30 00:42:30;;;;;;;3.33;2.17;;;18.90;85.30;;;;;;5045601;28;20033;-68
2023/03/30 00:45:17;;;;;;;3.33;2.28;;;18.90;85.30;;;;;;5046028;28;20147;-67
2023/03/30 00:47:48;;;;;;;3.20;2.15;;;18.80;85.30;;;;;;5045498;28;20059;-68
2023/03/30 00:50:15;;;;;;;3.17;2.20;;;18.80;85.40;;;;;;5043937;28;20090;-71
2023/03/30 00:52:43;;;;;;;3.55;2.42;;;18.80;85.40;;;;;;5044558;28;20045;-68
2023/03/30 00:55:10;;;;;;;6.20;2.30;;;18.80;85.40;;;;;;5045010;28;20072;-69
2023/03/30 00:57:38;;;;;;;2.83;2.20;;;18.80;85.40;;;;;;5045290;28;20383;-68
2023/03/30 01:00:09;;;;;;;4.20;2.53;;;18.80;85.40;;;;;;5044940;28;20037;-69
2023/03/30 01:02:41;;;;;;;3.15;2.28;;;18.80;85.50;;;;;;5044724;28;20068;-69
2023/03/30 01:05:07;;;;;;;3.25;2.45;;;18.80;85.50;;;;;;5043665;28;20198;-67
2023/03/30 01:07:35;;;;;;;3.10;2.17;;;18.80;85.50;;;;;;5045072;28;20593;-72
2023/03/30 01:10:02;;;;;;;2.60;2.10;;;18.80;85.60;;;;;;5045873;28;20628;-68
2023/03/30 01:12:28;;;;;;;4.32;2.47;;;18.80;85.60;;;;;;5105037;22;20087;-71
2023/03/30 01:14:55;;;;;;;3.30;2.15;;;18.80;85.60;;;;;;5023977;28;20655;-68
2023/03/30 01:17:46;;;;;;;4.22;2.15;;;18.70;85.60;;;;;;5024948;28;20080;-70
2023/03/30 01:20:30;;;;;;;3.58;2.28;;;18.80;85.60;;;;;;5024347;28;20100;-71
2023/03/30 01:23:00;;;;;;;2.67;2.17;;;18.80;85.60;;;;;;5024238;28;20053;-68
2023/03/30 01:25:55;;;;;;;2.85;2.00;;;18.80;85.70;;;;;;5024147;28;20060;-69
2023/03/30 01:28:24;;;;;;;4.00;2.17;;;18.70;85.60;;;;;;5006448;28;20136;-68
2023/03/30 01:31:14;;;;;;;2.90;1.85;;;18.80;85.70;;;;;;5024135;28;20046;-69
2023/03/30 01:33:51;;;;;;;4.55;2.05;;;18.70;85.70;;;;;;5022843;28;20128;-69
2023/03/30 01:36:25;;;;;;;3.45;1.73;;;18.80;85.80;;;;;;5023778;28;20095;-69
2023/03/30 01:39:32;;;;;;;3.63;2.20;;;18.80;85.70;;;;;;5024547;28;20041;-68
2023/03/30 01:42:26;;;;;;;3.58;2.08;;;18.70;85.70;;;;;;5006708;28;20120;-69
2023/03/30 01:45:22;;;;;;;3.15;1.90;;;18.70;85.70;;;;;;5020549;28;20118;-68
2023/03/30 01:48:09;;;;;;;2.80;1.95;;;18.70;85.80;;;;;;5024439;28;20053;-69
2023/03/30 01:50:51;;;;;;;2.80;1.80;;;18.70;85.80;;;;;;5024395;28;20233;-68
2023/03/30 01:53:31;;;;;;;2.63;1.80;;;18.70;85.80;;;;;;5006634;28;20049;-70
2023/03/30 01:56:11;;;;;;;3.08;2.10;;;18.70;85.80;;;;;;5023516;28;20045;-68
2023/03/30 01:58:50;;;;;;;3.30;2.00;;;18.70;85.90;;;;;;5006364;28;20369;-71
2023/03/30 02:01:19;;;;;;;3.25;1.80;;;18.70;85.90;;;;;;5006070;28;20049;-69
2023/03/30 02:03:54;;;;;;;3.10;1.92;;;18.70;85.90;;;;;;5004414;28;20057;-68
2023/03/30 02:06:37;;;;;;;3.08;2.08;;;18.70;85.90;;;;;;5023868;28;20065;-67
2023/03/30 02:09:09;;;;;;;2.85;1.92;;;18.70;85.90;;;;;;5006720;28;20057;-70
2023/03/30 02:11:38;;;;;;;2.50;1.73;;;18.70;85.90;;;;;;5023903;28;20049;-68
2023/03/30 02:14:05;;;;;;;3.70;1.70;;;18.70;86.00;;;;;;5024331;28;20146;-68
2023/03/30 02:16:41;;;;;;;2.70;1.70;;;18.70;86.00;;;;;;5024534;28;20051;-68
2023/03/30 02:19:07;;;;;;;4.00;2.28;;;18.70;86.00;;;;;;5024093;28;20376;-70
2023/03/30 02:21:34;;;;;;;2.70;1.90;;;18.60;86.00;;;;;;5023735;28;20049;-71
2023/03/30 02:24:02;;;;;;;3.63;2.28;;;18.70;86.00;;;;;;5023337;28;20049;-68
2023/03/30 02:26:29;;;;;;;3.40;2.08;;;18.60;86.00;;;;;;5024390;28;20049;-67
2023/03/30 02:28:55;;;;;;;2.75;1.73;;;18.60;86.00;;;;;;5024139;28;20045;-68
2023/03/30 02:31:21;;;;;;;3.58;1.70;;;18.70;86.00;;;;;;5023169;28;20041;-68
2023/03/30 02:33:46;;;;;;;3.40;1.77;;;18.60;86.00;;;;;;5023205;28;20124;-68
2023/03/30 02:36:39;;;;;;;2.85;1.90;;;18.60;86.00;;;;;;5006567;28;20144;-70
2023/03/30 02:39:07;;;;;;;3.45;1.85;;;18.60;86.00;;;;;;5022892;28;20054;-71
2023/03/30 02:41:47;;;;;;;3.22;1.90;;;18.60;86.00;;;;;;5023835;28;20049;-68
2023/03/30 02:44:52;;;;;;;2.97;1.80;;;18.60;86.10;;;;;;5006346;28;20042;-69
2023/03/30 02:47:23;;;;;;;3.33;1.70;;;18.60;86.10;;;;;;4964897;28;20405;-69
2023/03/30 02:50:27;;;;;;;3.50;1.80;;;18.60;86.10;;;;;;4981660;28;20057;-70
2023/03/30 02:53:25;;;;;;;3.33;1.77;;;18.60;86.10;;;;;;5013440;28;20056;-68
2023/03/30 02:56:18;;;;;;;3.50;1.92;;;18.60;86.20;;;;;;5023275;28;20037;-71
2023/03/30 02:58:48;;;;;;;3.03;1.92;;;18.60;86.20;;;;;;5023795;28;20400;-70
2023/03/30 03:01:37;;;;;;;2.70;1.70;;;18.60;86.20;;;;;;5006156;28;20528;-69
2023/03/30 03:04:04;;;;;;;2.45;1.60;;;18.60;86.20;;;;;;5018085;28;20203;-68
2023/03/30 03:06:31;;;;;;;2.95;1.60;;;18.60;86.30;;;;;;5023627;28;20110;-68
2023/03/30 03:08:57;;;;;;;2.97;1.73;;;18.60;86.30;;;;;;5024422;28;20120;-68
2023/03/30 03:11:23;;;;;;;3.15;1.70;;;18.60;86.20;;;;;;5023647;28;20497;-70
2023/03/30 03:13:49;;;;;;;3.55;1.90;;;18.50;86.20;;;;;;5023789;28;20133;-68
2023/03/30 03:16:15;;;;;;;3.53;1.60;;;18.50;86.20;;;;;;5023403;28;20037;-70
2023/03/30 03:18:41;;;;;;;2.90;1.67;;;18.60;86.30;;;;;;5023821;28;20122;-68
2023/03/30 03:21:08;;;;;;;3.05;1.75;;;18.50;86.30;;;;;;5023953;28;20744;-69
2023/03/30 03:23:35;;;;;;;2.70;1.70;;;18.50;86.30;;;;;;5022793;28;20052;-70
2023/03/30 03:26:01;;;;;;;3.97;1.90;;;18.50;86.30;;;;;;5023609;28;20068;-68
2023/03/30 03:28:27;;;;;;;2.72;1.77;;;18.50;86.30;;;;;;5006181;28;20551;-68
2023/03/30 03:30:54;;;;;;;2.72;1.80;;;18.50;86.30;;;;;;5022112;28;20053;-67
2023/03/30 03:33:19;;;;;;;2.95;1.75;;;18.50;86.30;;;;;;5023030;28;20052;-69
2023/03/30 03:35:45;;;;;;;3.40;1.88;;;18.50;86.30;;;;;;5023500;28;20037;-67
2023/03/30 03:38:12;;;;;;;3.38;1.90;;;18.50;86.40;;;;;;5024230;28;20424;-68
2023/03/30 03:40:39;;;;;;;3.42;1.70;;;18.50;86.30;;;;;;5022590;28;20053;-69
2023/03/30 03:43:05;;;;;;;3.17;1.63;;;18.50;86.30;;;;;;5022721;28;20117;-67
2023/03/30 03:45:30;;;;;;;3.45;1.60;;;18.50;86.40;;;;;;5022817;28;20708;-70
2023/03/30 03:47:56;;;;;;;2.75;1.50;;;18.50;86.40;;;;;;4988366;28;20040;-68
2023/03/30 03:50:22;;;;;;;2.97;1.55;;;18.50;86.40;;;;;;5005235;28;20141;-69
2023/03/30 03:52:48;;;;;;;2.80;1.67;;;18.50;86.40;;;;;;5005150;28;20593;-68
2023/03/30 03:55:14;;;;;;;2.78;1.80;;;18.50;86.40;;;;;;5005742;28;20068;-67
2023/03/30 03:57:40;;;;;;;3.20;1.52;;;18.40;86.40;;;;;;5023306;28;20117;-69
2023/03/30 04:00:14;;;;;;;3.00;1.67;;;18.40;86.40;;;;;;5007082;28;20053;-68
2023/03/30 04:02:43;;;;;;;2.88;1.73;;;18.50;86.40;;;;;;5025884;28;20041;-67
2023/03/30 04:05:09;;;;;;;3.05;1.98;;;18.50;86.40;;;;;;5026688;28;20147;-69
2023/03/30 04:07:35;;;;;;;3.67;1.80;;;18.40;86.40;;;;;;5026633;28;20133;-68
2023/03/30 04:10:06;;;;;;;2.22;1.70;;;18.40;86.40;;;;;;5026538;28;20104;-69
2023/03/30 04:12:32;;;;;;;2.95;1.80;;;18.40;86.40;;;;;;5007831;28;20049;-68
2023/03/30 04:14:58;;;;;;;2.70;1.77;;;18.40;86.40;;;;;;5026611;28;20732;-70
2023/03/30 04:17:24;;;;;;;2.30;1.70;;;18.40;86.50;;;;;;5026144;28;20472;-71
2023/03/30 04:19:53;;;;;;;4.50;2.08;;;18.40;86.40;;;;;;5024397;28;20103;-68
2023/03/30 04:22:23;;;;;;;3.35;1.52;;;18.40;86.40;;;;;;5026046;28;20128;-68
2023/03/30 04:24:49;;;;;;;3.22;1.80;;;18.40;86.40;;;;;;5026212;28;20046;-69
2023/03/30 04:27:15;;;;;;;3.55;1.80;;;18.40;87.00;;;;;;5024832;28;20049;-69
2023/03/30 04:29:43;;;;;;;3.78;1.70;;;18.40;86.40;;;;;;5026997;28;20080;-69
2023/03/30 04:32:12;;;;;;;2.22;1.58;;;18.40;86.50;;;;;;5026091;28;20046;-67
2023/03/30 04:34:41;;;;;;;2.97;1.70;;;18.40;86.40;;;;;;5024465;28;20045;-70
2023/03/30 04:37:10;;;;;;;2.20;1.38;;;18.40;86.40;;;;;;5026115;28;20048;-67
2023/03/30 04:39:36;;;;;;;2.65;1.60;;;18.40;86.40;;;;;;5025475;28;20047;-67
2023/03/30 04:42:03;;;;;;;2.33;1.58;;;18.40;86.50;;;;;;5009034;28;20120;-68
2023/03/30 04:44:29;;;;;;;2.90;1.80;;;18.40;86.50;;;;;;5024644;28;20532;-69
2023/03/30 04:46:55;;;;;;;3.03;1.60;;;18.40;86.50;;;;;;5007176;28;20049;-67
2023/03/30 04:49:22;;;;;;;2.53;1.50;;;18.40;86.50;;;;;;5024135;28;20660;-69
2023/03/30 04:51:47;;;;;;;2.50;1.50;;;18.40;86.60;;;;;;5025066;28;20037;-67
2023/03/30 04:54:13;;;;;;;2.60;1.40;;;18.40;86.50;;;;;;5025372;28;20045;-70
2023/03/30 04:56:39;;;;;;;2.20;1.55;;;18.40;86.60;;;;;;5025523;28;20744;-68
2023/03/30 04:59:05;;;;;;;3.88;1.60;;;18.40;86.60;;;;;;5025330;28;20483;-67
2023/03/30 05:01:30;;;;;;;2.80;1.50;;;18.40;86.60;;;;;;5006304;28;20084;-70
2023/03/30 05:03:56;;;;;;;2.70;1.75;;;18.40;86.60;;;;;;5024245;28;20136;-67
2023/03/30 05:06:22;;;;;;;3.15;1.95;;;18.40;86.60;;;;;;5025099;28;20061;-69
2023/03/30 05:08:47;;;;;;;3.25;1.73;;;18.30;86.60;;;;;;5024188;28;20061;-70
2023/03/30 05:11:13;;;;;;;2.50;1.73;;;18.30;86.60;;;;;;5025413;28;20060;-68
2023/03/30 05:13:39;;;;;;;3.85;1.63;;;18.30;86.60;;;;;;5025330;28;20052;-68
2023/03/30 05:16:05;;;;;;;3.85;1.50;;;18.40;86.70;;;;;;5025565;28;20427;-68
2023/03/30 05:18:31;;;;;;;3.33;1.73;;;18.30;86.70;;;;;;5023640;28;20386;-70
2023/03/30 05:20:57;;;;;;;3.80;1.45;;;18.40;86.70;;;;;;5024616;28;20085;-67
2023/03/30 05:23:24;;;;;;;3.20;1.70;;;18.30;86.70;;;;;;5025060;28;20053;-67
2023/03/30 05:25:49;;;;;;;2.70;1.58;;;18.30;86.70;;;;;;5024275;28;20049;-69
2023/03/30 05:28:18;;;;;;;3.60;1.50;;;18.30;86.70;;;;;;5025861;28;20041;-68
2023/03/30 05:30:45;;;;;;;3.15;1.50;;;18.30;87.40;;;;;;5024760;28;20103;-70
2023/03/30 05:33:11;;;;;;;2.92;1.77;;;18.30;86.70;;;;;;5005617;28;20684;-68
2023/03/30 05:35:37;;;;;;;2.70;1.50;;;18.30;86.80;;;;;;5024280;28;20090;-68
2023/03/30 05:38:03;;;;;;;2.70;1.70;;;18.30;86.80;;;;;;5025066;28;20037;-68
2023/03/30 05:40:30;;;;;;;2.72;1.65;;;18.30;86.80;;;;;;5024663;28;20053;-70
2023/03/30 05:42:56;;;;;;;2.88;1.60;;;18.30;86.80;;;;;;5006559;28;20041;-68
2023/03/30 05:45:22;;;;;;;3.45;1.65;;;18.30;86.90;;;;;;5023983;28;20048;-68
2023/03/30 05:47:47;;;;;;;2.83;1.70;;;18.30;86.80;;;;;;5023769;28;20072;-68
2023/03/30 05:50:13;;;;;;;2.33;1.33;;;18.40;86.90;;;;;;5006526;28;20164;-68
2023/03/30 05:52:39;;;;;;;4.00;1.63;;;18.40;86.70;;;;;;5022784;28;20037;-70
2023/03/30 05:55:05;;;;;;;3.60;1.50;;;18.50;86.70;;;;;;5023310;28;20053;-70
2023/03/30 05:57:32;;;;;;;2.33;1.30;;;18.60;86.50;;;;;;5006551;28;20059;-68
2023/03/30 05:59:58;;;;;;;1.85;1.20;;;18.70;86.40;;;;;;5023973;28;20042;-69
2023/03/30 06:02:24;;;;;;;2.72;1.40;;;18.80;86.20;;;;;;5022975;28;20037;-67
2023/03/30 06:04:49;;;;;;;2.45;1.30;;;18.70;86.10;;;;;;5024000;28;20045;-71
2023/03/30 06:07:16;;;;;;;2.20;1.30;;;18.80;86.10;;;;;;5006766;28;20046;-68
2023/03/30 06:09:42;;;;;;;2.13;1.17;;;18.80;86.00;;;;;;5005925;28;20049;-69
2023/03/30 06:12:08;;;;;;;2.60;1.42;;;18.80;86.10;;;;;;5023909;28;20114;-68
2023/03/30 06:14:34;;;;;;;2.70;1.45;;;18.80;86.70;;;;;;5006762;28;20372;-70
2023/03/30 06:17:00;;;;;;;2.80;1.50;;;18.80;86.10;;;;;;5023526;28;20041;-71
2023/03/30 06:19:26;;;;;;;4.80;1.60;;;18.80;86.10;;;;;;5023049;28;20049;-67
2023/03/30 06:21:52;;;;;;;2.58;1.50;;;18.80;86.20;;;;;;5022410;28;20068;-71
2023/03/30 06:24:19;;;;;;;2.38;1.30;;;18.80;86.10;;;;;;5022480;28;20080;-68
2023/03/30 06:26:45;;;;;;;2.58;1.50;;;18.80;86.10;;;;;;5022783;28;20045;-67
2023/03/30 06:29:10;;;;;;;2.63;1.30;;;18.80;86.20;;;;;;5023368;28;20499;-68
2023/03/30 06:31:36;;;;;;;2.33;1.30;;;18.90;86.10;;;;;;5023236;28;20052;-68
2023/03/30 06:34:02;;;;;;;2.63;1.30;;;18.90;86.10;;;;;;5022041;28;20156;-70
2023/03/30 06:36:27;;;;;;;3.20;1.30;;;18.90;86.10;;;;;;5005637;28;20132;-71
2023/03/30 06:38:53;;;;;;;2.78;1.60;;;18.90;86.10;;;;;;5023758;28;20037;-69
2023/03/30 06:41:19;;;;;;;2.38;1.30;;;18.90;86.20;;;;;;5006074;28;20157;-68
2023/03/30 06:43:44;;;;;;;2.58;1.55;;;18.90;86.20;;;;;;5023658;28;20080;-69
2023/03/30 06:46:11;;;;;;;2.58;1.40;;;18.90;86.20;;;;;;5023714;28;20049;-67
2023/03/30 06:48:37;;;;;;;3.10;1.40;;;19.00;86.10;;;;;;5022547;28;20041;-66
2023/03/30 06:51:04;;;;;;;3.95;1.63;;;19.00;86.10;;;;;;5022314;28;20414;-67
2023/03/30 06:53:30;;;;;;;3.55;1.48;;;19.00;86.10;;;;;;5023210;28;20049;-66
2023/03/30 06:55:57;;;;;;;2.50;1.20;;;19.00;86.20;;;;;;5005885;28;20403;-66
2023/03/30 06:58:25;;;;;;;2.60;1.40;;;19.00;86.30;;;;;;5005498;28;20064;-69
2023/03/30 07:00:51;;;;;;;2.17;1.27;;;18.90;86.30;;;;;;5023335;28;20053;-67
2023/03/30 07:03:20;;;;;;;40.63;1.85;;;19.00;86.40;;;;;;5022249;28;20583;-67
2023/03/30 07:05:47;;;;;;;3.30;1.35;;;19.00;86.40;;;;;;5004892;28;20099;-66
2023/03/30 07:08:13;;;;;;;4.40;1.23;;;18.90;86.40;;;;;;5022429;28;20716;-68
2023/03/30 07:10:39;;;;;;;2.80;1.10;;;19.00;86.30;;;;;;5023237;28;20058;-66
2023/03/30 07:13:06;;;;;;;3.33;1.38;;;19.00;86.20;;;;;;5022930;28;20043;-68
2023/03/30 07:15:32;;;;;;;4.68;1.10;;;19.10;86.20;;;;;;5022906;28;20057;-67
2023/03/30 07:17:58;;;;;;;5.07;1.60;;;19.10;86.20;;;;;;5022225;28;20436;-68
2023/03/30 07:20:24;;;;;;;3.28;1.65;;;19.10;86.20;;;;;;5023610;28;20697;-67
2023/03/30 07:22:50;;;;;;;3.63;1.40;;;19.10;86.90;;;;;;5023713;28;20050;-66
2023/03/30 07:25:16;;;;;;;2.42;1.23;;;19.10;86.30;;;;;;5021754;28;20052;-67
2023/03/30 07:27:42;;;;;;;3.05;1.33;;;19.10;86.40;;;;;;5023093;28;20041;-67
2023/03/30 07:30:09;;;;;;;3.50;1.20;;;19.20;86.40;;;;;;5022612;28;20049;-69
2023/03/30 07:32:35;;;;;;;1.83;1.10;;;19.20;86.40;;;;;;5004387;28;20049;-69
2023/03/30 07:35:01;;;;;;;2.60;1.25;;;19.20;86.50;;;;;;5026862;28;20439;-67
2023/03/30 07:37:27;;;;;;;3.65;1.40;;;19.20;86.50;;;;;;5033741;28;20120;-66
2023/03/30 07:39:54;;;;;;;3.15;1.40;;;19.20;86.60;;;;;;5015798;28;20591;-66
2023/03/30 07:42:20;;;;;;;3.25;1.30;;;19.20;86.70;;;;;;5033164;28;20045;-69
2023/03/30 07:44:46;;;;;;;3.20;1.42;;;19.20;86.80;;;;;;5034812;28;20041;-67
2023/03/30 07:47:12;;;;;;;3.95;1.20;;;19.20;86.90;;;;;;5035838;28;20530;-69
2023/03/30 07:49:37;;;;;;;3.47;1.00;;;19.20;86.80;;;;;;5018325;28;20044;-67
2023/03/30 07:52:03;;;;;;;2.90;1.30;;;19.20;86.90;;;;;;5033451;28;20047;-67
2023/03/30 07:54:29;;;;;;;2.20;1.10;;;19.20;87.00;;;;;;5033648;28;20446;-69
2023/03/30 07:56:55;;;;;;;4.18;1.38;;;19.20;87.00;;;;;;5033715;28;20041;-66
2023/03/30 07:59:22;;;;;;;2.50;1.30;;;19.10;87.00;;;;;;5014031;28;20468;-68
2023/03/30 08:01:50;;;;;;;3.05;1.35;;;19.10;87.10;;;;;;5031759;28;20091;-68
2023/03/30 08:04:17;;;;;;;2.80;1.23;;;19.10;87.10;;;;;;5014651;28;20048;-68
2023/03/30 08:06:43;;;;;;;2.83;1.20;;;19.20;87.20;;;;;;5033992;28;20071;-66
2023/03/30 08:09:09;;;;;;;4.93;1.20;;;19.10;87.30;;;;;;5040501;28;20041;-69
2023/03/30 08:11:35;;;;;;;3.35;1.40;;;19.20;87.40;;;;;;5024990;28;20416;-67
2023/03/30 08:14:02;;;;;;;5.35;1.48;;;19.10;87.40;;;;;;5043239;28;20106;-66
2023/03/30 08:16:28;;;;;;;5.65;1.30;;;19.10;87.40;;;;;;5041510;28;20037;-68
2023/03/30 08:18:54;;;;;;;5.80;1.60;;;19.10;87.50;;;;;;5040471;28;20113;-68
2023/03/30 08:21:22;;;;;;;4.07;1.42;;;19.10;87.60;;;;;;5014291;28;20136;-68
2023/03/30 08:23:48;;;;;;;4.20;1.67;;;19.10;87.70;;;;;;5031690;28;20052;-67
2023/03/30 08:26:13;;;;;;;4.10;1.23;;;19.10;87.80;;;;;;5032848;28;20053;-67
2023/03/30 08:28:39;;;;;;;4.05;1.40;;;19.10;87.90;;;;;;5032281;28;20065;-69
2023/03/30 08:31:07;;;;;;;5.43;1.75;;;19.10;87.90;;;;;;5031483;28;20044;-67
2023/03/30 08:33:33;;;;;;;4.75;1.73;;;19.10;88.50;;;;;;5031194;28;20377;-68
2023/03/30 08:35:59;;;;;;;13.80;2.08;;;19.20;88.10;;;;;;5031625;28;20045;-67
2023/03/30 08:38:25;;;;;;;11.68;2.10;;;19.10;88.30;;;;;;5032974;28;20037;-68
2023/03/30 08:40:51;;;;;;;9.00;2.55;;;19.10;88.90;;;;;;5032404;28;20045;-67
2023/03/30 08:43:40;;;;;;;7.03;2.00;;;19.10;89.10;;;;;;5038049;28;20041;-69
2023/03/30 08:46:11;;;;;;;8.27;2.50;;;19.00;89.10;;;;;;5017538;28;20574;-69
2023/03/30 08:48:41;;;;;;;9.15;2.35;;;19.10;89.30;;;;;;5016208;28;20130;-69
2023/03/30 08:51:28;;;;;;;8.38;2.45;;;19.10;89.40;;;;;;5038077;28;20041;-69
2023/03/30 08:53:58;;;;;;;8.10;2.55;;;19.20;89.50;;;;;;5036831;28;20036;-69
2023/03/30 08:56:30;;;;;;;7.90;2.35;;;19.20;89.40;;;;;;5033831;28;20040;-71
2023/03/30 08:59:05;;;;;;;8.93;2.25;;;19.20;89.70;;;;;;5014347;28;20681;-68
2023/03/30 09:01:43;;;;;;;11.73;2.67;;;19.30;89.90;;;;;;5022387;28;20556;-69
2023/03/30 09:04:34;;;;;;;8.52;2.33;;;19.30;89.90;;;;;;5005187;28;20045;-69
2023/03/30 09:07:15;;;;;;;5.30;2.15;;;19.30;90.00;;;;;;5032168;28;20435;-70
2023/03/30 09:09:44;;;;;;;7.53;2.20;;;19.00;89.90;;;;;;5030511;28;20048;-68
2023/03/30 12:09:57;;;;;;;7.93;2.08;;;20.30;90.40;;;;;;5102908;27;20435;-59
2023/03/30 12:12:31;;;;;;;10.00;2.50;;;20.50;90.10;;;;;;5107511;28;20596;-62
2023/03/30 12:15:12;;;;;;;9.82;2.25;;;20.40;90.30;;;;;;5099374;28;20027;-59
2023/03/30 12:17:56;;;;;;;7.13;2.17;;;20.40;90.20;;;;;;5105411;28;20066;-60
2023/03/30 12:20:50;;;;;;;8.68;2.20;;;20.30;90.10;;;;;;5106593;28;20042;-59
2023/03/30 12:23:28;;;;;;;5.70;2.20;;;20.30;90.40;;;;;;5105631;28;20439;-60
2023/03/30 12:26:16;;;;;;;8.48;2.67;;;20.20;90.40;;;;;;5106364;28;20078;-59
2023/03/30 12:28:58;;;;;;;5.43;2.10;;;20.30;90.30;;;;;;5106925;28;20047;-59
2023/03/30 12:31:48;;;;;;;7.18;2.13;;;20.20;90.30;;;;;;5104870;28;20129;-59
2023/03/30 12:34:15;;;;;;;4.68;1.92;;;20.30;90.40;;;;;;5106492;28;20044;-59
2023/03/30 12:36:46;;;;;;;6.25;2.20;;;20.30;90.50;;;;;;5106322;28;20050;-58
2023/03/30 12:39:52;;;;;;;5.13;1.80;;;20.20;90.40;;;;;;5106005;28;20126;-58
2023/03/30 12:42:33;;;;;;;5.43;2.10;;;20.30;90.50;;;;;;5091334;28;20131;-58
2023/03/30 12:45:23;;;;;;;5.90;2.05;;;20.30;90.40;;;;;;5106456;28;20042;-58
2023/03/30 12:47:54;;;;;;;5.07;2.13;;;20.30;90.50;;;;;;5105668;28;20397;-58
2023/03/30 12:50:55;;;;;;;6.00;2.13;;;20.20;90.60;;;;;;5105747;28;20067;-58
2023/03/30 12:53:42;;;;;;;10.35;1.90;;;20.20;90.60;;;;;;5104097;28;20127;-58
2023/03/30 12:56:33;;;;;;;6.07;2.13;;;20.20;90.60;;;;;;5107082;28;20445;-62
2023/03/30 12:59:14;;;;;;;6.32;2.00;;;20.30;90.60;;;;;;5089375;28;20085;-58
2023/03/30 13:02:01;;;;;;;5.90;2.00;;;20.30;90.60;;;;;;5105508;28;20447;-58
2023/03/30 13:04:36;;;;;;;5.57;1.92;;;20.30;90.50;;;;;;5105966;28;20678;-58
2023/03/30 13:07:05;;;;;;;5.63;1.85;;;20.30;90.50;;;;;;5106378;28;20031;-58
2023/03/30 13:09:58;;;;;;;5.20;2.08;;;20.30;90.50;;;;;;5104876;28;20059;-58
2023/03/30 13:12:23;;;;;;;6.65;1.70;;;20.30;90.60;;;;;;5105817;28;20032;-58
2023/03/30 13:14:57;;;;;;;5.72;1.52;;;20.30;90.70;;;;;;5104902;28;20125;-60
2023/03/30 13:17:25;;;;;;;6.18;2.13;;;20.20;90.70;;;;;;5102634;28;20798;-58
2023/03/30 13:20:16;;;;;;;5.22;1.98;;;20.20;90.70;;;;;;5097955;28;20063;-61
2023/03/30 13:22:58;;;;;;;6.00;1.98;;;20.30;90.80;;;;;;5092534;28;20414;-61
2023/03/30 13:25:37;;;;;;;5.55;1.85;;;20.30;90.80;;;;;;5091473;28;20088;-59
2023/03/30 13:28:41;;;;;;;7.35;1.67;;;20.30;90.80;;;;;;5091075;28;20073;-60
2023/03/30 13:35:16;;;;;;;8.82;2.90;;;20.50;91.20;;;;;;5003880;28;20190;-64
2023/03/30 13:37:56;;;;;;;8.27;2.60;;;21.10;90.30;;;;;;5031051;28;20062;-64
2023/03/30 13:40:27;;;;;;;6.88;2.30;;;21.20;89.90;;;;;;5003712;28;20393;-64
2023/03/30 13:43:06;;;;;;;6.63;2.35;;;21.20;89.40;;;;;;5003089;28;20042;-63
2023/03/30 13:46:10;;;;;;;7.20;2.45;;;21.10;89.60;;;;;;5002644;28;20054;-65
2023/03/30 13:48:54;;;;;;;7.65;2.50;;;21.00;89.50;;;;;;5003796;28;20081;-64
2023/03/30 13:51:26;;;;;;;6.32;2.33;;;21.00;89.40;;;;;;5003361;28;20049;-64
2023/03/30 13:54:00;;;;;;;7.10;2.20;;;21.00;89.60;;;;;;5002147;28;20188;-65
2023/03/30 13:56:30;;;;;;;8.27;2.35;;;20.90;89.90;;;;;;5002725;28;20097;-65
2023/03/30 13:59:05;;;;;;;6.70;2.10;;;20.80;90.00;;;;;;5002844;28;20722;-64
2023/03/30 14:01:32;;;;;;;6.32;2.17;;;20.70;90.20;;;;;;5001507;28;20075;-64
2023/03/30 14:04:02;;;;;;;9.60;2.63;;;20.60;90.30;;;;;;5002460;28;20144;-64
2023/03/30 14:06:30;;;;;;;7.32;2.38;;;20.50;90.40;;;;;;5001045;28;20065;-64
2023/03/30 14:09:05;;;;;;;8.10;2.30;;;20.40;90.40;;;;;;5000499;28;20034;-63
2023/03/30 14:11:35;;;;;;;7.25;2.30;;;20.30;90.50;;;;;;5002970;28;20770;-64
2023/03/30 14:14:03;;;;;;;8.32;2.47;;;20.20;90.90;;;;;;5002395;28;20047;-64
2023/03/30 14:16:37;;;;;;;8.00;2.63;;;20.10;90.70;;;;;;5002280;28;20044;-64
2023/03/30 14:19:26;;;;;;;10.25;2.50;;;20.10;90.70;;;;;;5001808;28;20117;-64
2023/03/30 14:21:59;;;;;;;7.72;2.60;;;20.10;90.90;;;;;;5000261;28;20099;-64
2023/03/30 14:24:34;;;;;;;6.80;2.10;;;20.10;90.90;;;;;;5002790;28;20038;-64
2023/03/30 14:27:19;;;;;;;;;;;20.30;90.80;;;;;;5001665;28;20111;-64
2023/03/30 14:29:48;;;;;;;9.60;2.20;;;20.20;90.80;;;;;;5001378;27;20035;-64
2023/03/30 14:32:18;;;;;;;7.65;2.00;;;20.10;90.70;;;;;;4998569;28;20081;-64
2023/03/30 14:34:48;;;;;;;5.95;2.28;;;20.10;90.80;;;;;;5001099;28;20053;-64
2023/03/30 14:37:14;;;;;;;8.60;2.50;;;20.00;91.00;;;;;;5001848;28;20420;-63
2023/03/30 14:39:52;;;;;;;7.47;2.45;;;20.00;91.00;;;;;;4999971;28;20060;-63
2023/03/30 14:42:24;;;;;;;7.10;2.17;;;19.90;91.00;;;;;;5002646;28;20270;-64
2023/03/30 14:44:53;;;;;;;6.35;2.30;;;19.90;91.20;;;;;;4996437;28;20053;-64
2023/03/30 14:47:24;;;;;;;7.28;2.30;;;19.90;91.40;;;;;;4987087;28;20192;-62
2023/03/30 14:49:54;;;;;;;6.97;2.33;;;19.90;91.60;;;;;;4987855;28;20080;-63
2023/03/30 14:52:46;;;;;;;8.73;2.35;;;19.90;91.60;;;;;;4988836;28;20056;-65
2023/03/30 14:55:22;;;;;;;7.40;2.33;;;20.00;91.60;;;;;;4990274;28;20077;-63
2023/03/30 14:57:49;;;;;;;7.20;2.13;;;19.90;91.40;;;;;;4986967;28;20053;-63
2023/03/30 15:00:23;;;;;;;6.57;2.20;;;19.90;91.40;;;;;;4988394;28;20050;-63
2023/03/30 15:02:57;;;;;;;8.45;2.30;;;19.80;91.60;;;;;;4988854;28;20109;-64
2023/03/30 15:05:30;;;;;;;7.93;2.28;;;19.90;91.70;;;;;;4987928;28;20738;-64
2023/03/30 15:07:55;;;;;;;9.20;2.97;;;19.90;91.40;;;;;;4988181;28;20045;-64
2023/03/30 15:10:35;;;;;;;8.95;2.33;;;19.90;91.30;;;;;;4987825;28;20035;-64
2023/03/30 15:13:03;;;;;;;6.72;2.00;;;20.00;91.30;;;;;;4989254;28;20073;-63
2023/03/30 15:15:31;;;;;;;8.88;2.55;;;20.00;91.20;;;;;;4988439;28;20087;-64
2023/03/30 15:17:58;;;;;;;8.02;2.28;;;20.10;91.10;;;;;;4988201;28;20041;-63
2023/03/30 15:20:27;;;;;;;8.90;2.28;;;20.10;91.10;;;;;;4984035;28;20133;-64
2023/03/30 15:22:53;;;;;;;8.05;1.85;;;20.20;91.00;;;;;;4989321;28;20039;-64
2023/03/30 15:25:31;;;;;;;7.53;1.98;;;20.30;90.90;;;;;;4988662;28;20413;-66
2023/03/30 15:28:20;;;;;;;7.20;1.95;;;20.40;90.90;;;;;;4984303;28;20064;-64
2023/03/30 15:30:51;;;;;;;8.98;2.17;;;20.40;90.80;;;;;;4987536;28;20488;-65
2023/03/30 15:33:30;;;;;;;7.80;2.20;;;20.50;90.80;;;;;;4988519;28;20943;-64
2023/03/30 15:36:06;;;;;;;7.20;2.28;;;20.40;91.00;;;;;;4986764;28;20046;-64
2023/03/30 15:38:35;;;;;;;7.28;2.08;;;20.40;90.90;;;;;;4999177;28;20145;-63
2023/03/30 15:41:01;;;;;;;7.68;2.13;;;20.30;91.00;;;;;;4989908;28;20076;-64
2023/03/30 15:43:29;;;;;;;9.20;2.40;;;20.40;90.90;;;;;;4988609;28;20760;-63
2023/03/30 15:46:06;;;;;;;7.50;1.92;;;20.30;90.80;;;;;;4986592;28;20125;-63
2023/03/30 15:48:39;;;;;;;6.38;2.35;;;20.20;90.80;;;;;;4987549;28;20034;-64
2023/03/30 15:51:10;;;;;;;11.43;2.30;;;20.20;90.90;;;;;;4986850;28;20406;-65
2023/03/30 15:53:45;;;;;;;8.25;2.30;;;20.10;90.90;;;;;;4986749;28;20050;-64
2023/03/30 15:56:18;;;;;;;9.75;2.25;;;20.10;92.50;;;;;;4987819;28;20060;-64
2023/03/30 15:58:43;;;;;;;6.80;2.10;;;20.20;93.00;;;;;;4988567;28;20061;-65
2023/03/30 16:01:13;;;;;;;8.57;2.22;;;20.20;92.60;;;;;;4987875;28;20488;-63
2023/03/30 16:03:52;;;;;;;7.00;1.98;;;20.30;92.50;;;;;;4988031;28;20049;-64
2023/03/30 16:06:19;;;;;;;8.43;2.25;;;20.40;92.60;;;;;;4988158;28;20517;-64
2023/03/30 16:08:45;;;;;;;8.32;2.10;;;20.30;92.70;;;;;;4988161;28;20038;-64
2023/03/30 16:11:15;;;;;;;6.35;2.00;;;20.30;92.80;;;;;;4988119;28;20373;-63